createdAt,value
2023-01-17T00:00:31.432Z,7.95
2023-01-17T00:01:34.305Z,7.65
2023-01-17T00:02:37.245Z,8.43
2023-01-17T00:03:58.669Z,7.05
2023-01-17T00:05:19.753Z,7.72
2023-01-17T00:06:42.677Z,7.65
2023-01-17T00:08:03.916Z,7.45
2023-01-17T00:09:25.034Z,7.65
2023-01-17T00:11:30.805Z,8.95
2023-01-17T00:12:34.404Z,9.45
2023-01-17T00:13:37.166Z,8.73
2023-01-17T00:14:39.816Z,9.23
2023-01-17T00:15:42.359Z,9.23
2023-01-17T00:16:44.838Z,8.52
2023-01-17T00:17:48.081Z,8.02
2023-01-17T00:19:10.522Z,8.52
2023-01-17T00:20:32.721Z,9.65
2023-01-17T00:21:53.963Z,8.15
2023-01-17T00:23:15.323Z,8.90
2023-01-17T00:24:36.800Z,6.20
2023-01-17T00:25:59.483Z,4.63
2023-01-17T00:27:14.135Z,4.30
2023-01-17T00:28:16.767Z,3.65
2023-01-17T00:29:20.009Z,2.83
2023-01-17T00:30:23.013Z,3.65
2023-01-17T00:31:25.504Z,3.40
2023-01-17T00:32:27.942Z,3.83
2023-01-17T00:33:30.578Z,3.63
2023-01-17T00:34:32.987Z,3.72
2023-01-17T00:35:35.511Z,3.97
2023-01-17T00:36:38.020Z,3.53
2023-01-17T00:37:40.660Z,4.38
2023-01-17T00:38:43.308Z,3.38
2023-01-17T00:39:45.825Z,4.65
2023-01-17T00:40:49.439Z,4.18
2023-01-17T00:41:52.195Z,4.57
2023-01-17T00:43:13.444Z,4.63
2023-01-17T00:44:34.555Z,5.53
2023-01-17T00:47:16.679Z,4.50
2023-01-17T00:48:37.800Z,4.53
2023-01-17T00:49:59.163Z,5.13
2023-01-17T00:51:22.230Z,4.82
2023-01-17T00:52:43.688Z,4.43
2023-01-17T00:54:05.302Z,5.13
2023-01-17T00:55:27.015Z,5.05
2023-01-17T00:56:48.500Z,5.30
2023-01-17T00:58:09.738Z,5.60
2023-01-17T00:59:31.337Z,5.90
2023-01-17T01:00:53.006Z,5.43
2023-01-17T01:02:14.548Z,5.60
2023-01-17T01:03:36.519Z,5.63
2023-01-17T01:04:58.105Z,5.97
2023-01-17T01:06:23.674Z,5.78
2023-01-17T01:07:45.271Z,5.50
2023-01-17T01:09:06.873Z,5.43
2023-01-17T01:10:28.955Z,5.50
2023-01-17T01:11:50.439Z,5.47
2023-01-17T01:13:11.801Z,5.20
2023-01-17T01:14:33.411Z,6.57
2023-01-17T01:15:55.142Z,5.50
2023-01-17T01:17:16.742Z,5.78
2023-01-17T01:18:38.576Z,5.85
2023-01-17T01:20:00.207Z,6.88
2023-01-17T01:21:22.980Z,6.35
2023-01-17T01:22:44.600Z,5.03
2023-01-17T01:24:06.178Z,6.05
2023-01-17T01:25:28.020Z,6.05
2023-01-17T01:26:49.746Z,6.25
2023-01-17T01:28:10.878Z,5.07
2023-01-17T01:29:32.232Z,5.97
2023-01-17T01:30:53.113Z,4.90
2023-01-17T01:33:20.532Z,3.92
2023-01-17T01:34:23.360Z,5.07
2023-01-17T01:35:26.356Z,6.05
2023-01-17T01:36:28.997Z,4.80
2023-01-17T01:37:32.478Z,6.25
2023-01-17T01:38:35.174Z,5.07
2023-01-17T01:39:37.815Z,4.63
2023-01-17T01:40:44.967Z,4.43
2023-01-17T01:41:47.532Z,4.35
2023-01-17T01:42:54.133Z,4.78
2023-01-17T01:43:57.140Z,5.95
2023-01-17T01:44:59.663Z,3.83
2023-01-17T01:46:02.365Z,4.60
2023-01-17T01:47:04.936Z,4.05
2023-01-17T01:48:21.263Z,4.07
2023-01-17T01:49:28.422Z,4.38
2023-01-17T01:50:33.981Z,4.43
2023-01-17T01:51:44.063Z,4.40
2023-01-17T01:52:50.905Z,4.10
2023-01-17T01:54:00.990Z,3.67
2023-01-17T01:55:18.111Z,3.72
2023-01-17T01:56:23.664Z,4.22
2023-01-17T01:57:32.187Z,4.55
2023-01-17T01:58:37.947Z,3.83
2023-01-17T01:59:44.911Z,3.05
2023-01-17T02:00:47.521Z,3.90
2023-01-17T02:01:53.302Z,3.95
2023-01-17T02:03:00.150Z,3.67
2023-01-17T02:04:03.547Z,3.33
2023-01-17T02:05:06.635Z,3.28
2023-01-17T02:06:16.237Z,3.47
2023-01-17T02:07:30.153Z,3.50
2023-01-17T02:08:33.643Z,3.20
2023-01-17T02:09:37.112Z,2.63
2023-01-17T02:10:42.637Z,3.80
2023-01-17T02:11:47.082Z,2.60
2023-01-17T02:12:49.832Z,2.47
2023-01-17T02:13:52.359Z,3.47
2023-01-17T02:14:55.623Z,2.17
2023-01-17T02:16:22.463Z,1.90
2023-01-17T02:17:31.721Z,1.85
2023-01-17T02:18:53.441Z,1.40
2023-01-17T02:20:10.839Z,1.80
2023-01-17T02:21:23.808Z,1.60
2023-01-17T02:22:38.450Z,1.75
2023-01-17T02:24:18.180Z,1.50
2023-01-17T02:25:47.985Z,1.15
2023-01-17T02:26:52.846Z,1.50
2023-01-17T02:28:32.688Z,1.45
2023-01-17T02:29:50.089Z,1.00
2023-01-17T02:31:01.007Z,1.27
2023-01-17T02:32:31.978Z,1.67
2023-01-17T02:33:43.614Z,1.13
2023-01-17T02:35:01.743Z,1.85
2023-01-17T02:36:22.635Z,1.65
2023-01-17T02:37:57.682Z,0.90
2023-01-17T02:39:20.462Z,0.85
2023-01-17T02:40:33.064Z,1.05
2023-01-17T02:41:44.958Z,0.70
2023-01-17T02:42:55.161Z,0.40
2023-01-17T02:43:57.690Z,0.77
2023-01-17T02:45:02.231Z,0.40
2023-01-17T02:46:05.013Z,0.20
2023-01-17T02:47:36.913Z,0.30
2023-01-17T02:48:40.282Z,0.22
2023-01-17T02:49:43.044Z,0.10
2023-01-17T02:51:10.282Z,0.47
2023-01-17T02:52:34.401Z,0.35
2023-01-17T02:54:18.803Z,0.20
2023-01-17T02:55:35.968Z,0.38
2023-01-17T02:56:49.289Z,0.17
2023-01-17T02:58:01.410Z,0.40
2023-01-17T02:59:25.903Z,0.38
2023-01-17T03:00:53.318Z,0.15
2023-01-17T03:02:25.363Z,0.10
2023-01-17T03:03:35.861Z,0.10
2023-01-17T03:04:48.709Z,0.10
2023-01-17T03:06:12.104Z,0.10
2023-01-17T03:07:24.229Z,0.22
2023-01-17T03:08:29.159Z,0.00
2023-01-17T03:09:32.991Z,0.10
2023-01-17T03:10:37.320Z,0.00
2023-01-17T03:11:40.435Z,0.00
2023-01-17T03:12:44.041Z,0.05
2023-01-17T03:13:47.156Z,0.15
2023-01-17T03:14:50.399Z,0.10
2023-01-17T03:15:53.766Z,0.00
2023-01-17T03:16:56.935Z,0.15
2023-01-17T03:18:04.924Z,0.00
2023-01-17T03:19:10.238Z,0.00
2023-01-17T03:20:13.448Z,1.02
2023-01-17T03:21:16.694Z,0.00
2023-01-17T03:22:19.809Z,0.03
2023-01-17T03:23:22.950Z,0.08
2023-01-17T03:24:26.174Z,0.00
2023-01-17T03:25:29.415Z,0.10
2023-01-17T03:26:33.259Z,0.10
2023-01-17T03:27:36.378Z,0.10
2023-01-17T03:28:39.747Z,0.20
2023-01-17T03:29:42.870Z,0.20
2023-01-17T03:30:45.907Z,0.00
2023-01-17T03:31:49.109Z,0.10
2023-01-17T03:32:51.875Z,0.10
2023-01-17T03:33:54.631Z,0.10
2023-01-17T03:34:57.390Z,0.40
2023-01-17T03:36:00.037Z,0.22
2023-01-17T03:37:02.795Z,0.10
2023-01-17T03:38:05.492Z,0.38
2023-01-17T03:39:08.198Z,0.30
2023-01-17T03:40:11.327Z,0.10
2023-01-17T03:41:14.207Z,0.13
2023-01-17T03:42:16.896Z,0.10
2023-01-17T03:43:19.725Z,0.22
2023-01-17T03:44:22.608Z,0.17
2023-01-17T03:45:25.296Z,0.52
2023-01-17T03:46:28.972Z,0.20
2023-01-17T03:47:31.538Z,0.40
2023-01-17T03:48:34.859Z,0.32
2023-01-17T03:49:37.975Z,0.50
2023-01-17T03:50:40.538Z,0.80
2023-01-17T03:51:43.183Z,0.25
2023-01-17T03:52:45.660Z,0.30
2023-01-17T03:53:48.349Z,0.30
2023-01-17T03:54:50.866Z,0.43
2023-01-17T03:55:53.479Z,0.20
2023-01-17T03:56:56.024Z,0.28
2023-01-17T03:57:58.568Z,0.28
2023-01-17T03:59:01.184Z,0.20
2023-01-17T04:00:04.666Z,0.05
2023-01-17T04:01:10.063Z,0.20
2023-01-17T04:02:12.761Z,0.20
2023-01-17T04:03:15.438Z,0.15
2023-01-17T04:04:18.083Z,0.50
2023-01-17T04:05:20.601Z,0.13
2023-01-17T04:06:23.158Z,0.28
2023-01-17T04:07:25.791Z,0.20
2023-01-17T04:08:28.550Z,0.28
2023-01-17T04:09:34.196Z,0.25
2023-01-17T04:10:36.711Z,0.20
2023-01-17T04:11:39.232Z,0.10
2023-01-17T04:12:41.757Z,0.40
2023-01-17T04:13:44.284Z,0.28
2023-01-17T04:14:48.240Z,0.20
2023-01-17T04:15:51.597Z,0.20
2023-01-17T04:16:54.522Z,0.30
2023-01-17T04:17:57.238Z,0.50
2023-01-17T04:18:59.763Z,0.75
2023-01-17T04:20:02.283Z,0.20
2023-01-17T04:21:04.919Z,0.35
2023-01-17T04:22:07.684Z,0.30
2023-01-17T04:23:10.450Z,0.30
2023-01-17T04:24:12.971Z,0.17
2023-01-17T04:25:15.601Z,0.20
2023-01-17T04:26:18.122Z,0.63
2023-01-17T04:27:20.644Z,0.40
2023-01-17T04:28:23.164Z,0.50
2023-01-17T04:29:25.803Z,0.52
2023-01-17T04:30:28.819Z,0.60
2023-01-17T04:31:32.781Z,0.30
2023-01-17T04:32:35.290Z,0.30
2023-01-17T04:33:37.821Z,0.50
2023-01-17T04:34:40.329Z,0.47
2023-01-17T04:35:42.866Z,0.90
2023-01-17T04:36:45.618Z,0.40
2023-01-17T04:37:48.134Z,0.65
2023-01-17T04:38:50.664Z,0.50
2023-01-17T04:39:53.183Z,0.45
2023-01-17T04:40:55.702Z,0.45
2023-01-17T04:41:58.229Z,0.55
2023-01-17T04:43:00.878Z,0.32
2023-01-17T04:44:04.465Z,0.60
2023-01-17T04:45:07.824Z,0.57
2023-01-17T04:46:11.039Z,0.40
2023-01-17T04:47:13.711Z,1.05
2023-01-17T04:48:16.351Z,0.40
2023-01-17T04:49:18.879Z,0.63
2023-01-17T04:50:21.399Z,0.52
2023-01-17T04:51:24.054Z,0.20
2023-01-17T04:52:26.687Z,0.40
2023-01-17T04:53:29.440Z,0.40
2023-01-17T04:54:32.203Z,0.30
2023-01-17T04:55:34.972Z,0.30
2023-01-17T04:56:37.967Z,0.55
2023-01-17T04:57:40.725Z,0.40
2023-01-17T04:58:43.621Z,1.75
2023-01-17T04:59:47.586Z,0.30
2023-01-17T05:00:51.961Z,0.22
2023-01-17T05:01:55.061Z,0.63
2023-01-17T05:02:58.184Z,0.50
2023-01-17T05:04:01.270Z,0.40
2023-01-17T05:05:04.379Z,0.32
2023-01-17T05:06:07.499Z,0.30
2023-01-17T05:07:10.891Z,0.32
2023-01-17T05:08:14.345Z,0.43
2023-01-17T05:09:17.467Z,0.40
2023-01-17T05:10:20.591Z,0.50
2023-01-17T05:11:23.706Z,0.32
2023-01-17T05:12:27.793Z,0.50
2023-01-17T05:13:30.912Z,0.30
2023-01-17T05:14:34.755Z,0.45
2023-01-17T05:15:37.878Z,0.47
2023-01-17T05:16:41.020Z,0.60
2023-01-17T05:17:44.249Z,0.60
2023-01-17T05:18:47.481Z,0.55
2023-01-17T05:19:52.162Z,0.63
2023-01-17T05:20:55.289Z,0.77
2023-01-17T05:22:04.393Z,0.30
2023-01-17T05:23:08.127Z,0.55
2023-01-17T05:24:11.369Z,0.60
2023-01-17T05:25:14.621Z,0.40
2023-01-17T05:26:18.096Z,0.32
2023-01-17T05:27:21.221Z,0.90
2023-01-17T05:28:24.578Z,0.95
2023-01-17T05:29:27.825Z,1.52
2023-01-17T05:30:33.463Z,0.90
2023-01-17T05:31:37.206Z,0.45
2023-01-17T05:32:40.429Z,0.50
2023-01-17T05:33:43.672Z,0.28
2023-01-17T05:34:46.674Z,0.45
2023-01-17T05:35:49.547Z,0.40
2023-01-17T05:36:52.683Z,0.85
2023-01-17T05:37:55.800Z,0.70
2023-01-17T05:38:58.312Z,0.70
2023-01-17T05:40:01.196Z,0.30
2023-01-17T05:41:05.157Z,0.70
2023-01-17T05:42:07.679Z,0.40
2023-01-17T05:43:10.442Z,0.40
2023-01-17T05:44:13.321Z,0.57
2023-01-17T05:45:17.404Z,0.90
2023-01-17T05:46:20.050Z,1.00
2023-01-17T05:47:22.568Z,0.75
2023-01-17T05:48:25.213Z,0.40
2023-01-17T05:49:27.665Z,0.70
2023-01-17T05:50:36.176Z,1.17
2023-01-17T05:51:39.744Z,0.85
2023-01-17T05:52:42.805Z,0.60
2023-01-17T05:53:45.312Z,1.67
2023-01-17T05:54:47.947Z,0.45
2023-01-17T05:55:50.663Z,0.82
2023-01-17T05:56:53.306Z,0.60
2023-01-17T05:57:56.823Z,1.30
2023-01-17T05:58:59.429Z,0.60
2023-01-17T06:00:02.110Z,0.52
2023-01-17T06:01:07.386Z,0.38
2023-01-17T06:02:09.905Z,0.30
2023-01-17T06:03:13.031Z,0.80
2023-01-17T06:04:15.715Z,1.05
2023-01-17T06:05:18.189Z,0.77
2023-01-17T06:06:21.078Z,0.85
2023-01-17T06:07:23.589Z,0.30
2023-01-17T06:08:26.112Z,0.30
2023-01-17T06:09:28.631Z,0.50
2023-01-17T06:10:32.269Z,0.77
2023-01-17T06:11:34.885Z,0.47
2023-01-17T06:12:37.751Z,0.43
2023-01-17T06:13:40.375Z,0.38
2023-01-17T06:14:42.913Z,0.40
2023-01-17T06:15:45.493Z,0.75
2023-01-17T06:16:48.079Z,0.30
2023-01-17T06:17:50.601Z,0.30
2023-01-17T06:18:53.252Z,1.05
2023-01-17T06:19:55.759Z,0.57
2023-01-17T06:20:58.540Z,0.80
2023-01-17T06:22:01.041Z,0.32
2023-01-17T06:23:05.851Z,0.47
2023-01-17T06:24:08.479Z,0.55
2023-01-17T06:25:11.023Z,0.50
2023-01-17T06:26:13.544Z,0.40
2023-01-17T06:27:16.169Z,0.60
2023-01-17T06:28:21.087Z,0.30
2023-01-17T06:29:23.721Z,0.50
2023-01-17T06:30:26.265Z,0.50
2023-01-17T06:31:28.853Z,0.70
2023-01-17T06:32:31.296Z,1.23
2023-01-17T06:33:34.070Z,0.50
2023-01-17T06:34:38.370Z,0.85
2023-01-17T06:35:47.853Z,0.63
2023-01-17T06:36:50.382Z,1.65
2023-01-17T06:37:55.453Z,0.43
2023-01-17T06:38:58.055Z,0.68
2023-01-17T06:40:00.597Z,0.60
2023-01-17T06:41:06.097Z,1.00
2023-01-17T06:42:08.746Z,0.40
2023-01-17T06:43:11.411Z,0.77
2023-01-17T06:44:14.048Z,0.85
2023-01-17T06:45:17.162Z,0.45
2023-01-17T06:46:20.083Z,0.52
2023-01-17T06:47:22.674Z,0.43
2023-01-17T06:48:25.313Z,0.57
2023-01-17T06:49:28.200Z,0.40
2023-01-17T06:50:31.793Z,0.93
2023-01-17T06:51:34.435Z,1.52
2023-01-17T06:52:37.140Z,1.30
2023-01-17T06:53:40.451Z,1.55
2023-01-17T06:54:43.083Z,0.85
2023-01-17T06:55:45.723Z,0.50
2023-01-17T06:56:48.363Z,2.15
2023-01-17T06:57:51.241Z,0.70
2023-01-17T06:58:54.014Z,0.50
2023-01-17T06:59:56.766Z,0.50
2023-01-17T07:00:59.747Z,0.47
2023-01-17T07:02:02.659Z,1.02
2023-01-17T07:03:05.534Z,0.63
2023-01-17T07:04:08.625Z,0.95
2023-01-17T07:05:11.675Z,0.40
2023-01-17T07:06:14.669Z,0.65
2023-01-17T07:07:18.019Z,1.00
2023-01-17T07:08:21.150Z,0.68
2023-01-17T07:09:24.262Z,1.42
2023-01-17T07:10:27.386Z,0.70
2023-01-17T07:11:30.872Z,0.60
2023-01-17T07:12:33.987Z,0.45
2023-01-17T07:13:40.712Z,0.50
2023-01-17T07:14:43.835Z,0.30
2023-01-17T07:15:47.027Z,1.95
2023-01-17T07:16:50.554Z,0.63
2023-01-17T07:17:53.675Z,0.70
2023-01-17T07:18:58.480Z,0.70
2023-01-17T07:20:01.858Z,0.70
2023-01-17T07:21:04.961Z,2.30
2023-01-17T07:22:11.202Z,0.50
2023-01-17T07:23:14.569Z,1.13
2023-01-17T07:24:17.806Z,0.82
2023-01-17T07:25:21.058Z,0.95
2023-01-17T07:26:24.173Z,0.60
2023-01-17T07:27:30.783Z,1.75
2023-01-17T07:28:34.013Z,0.55
2023-01-17T07:29:39.216Z,0.57
2023-01-17T07:30:42.682Z,0.60
2023-01-17T07:31:46.259Z,0.40
2023-01-17T07:32:53.955Z,0.75
2023-01-17T07:33:57.431Z,0.65
2023-01-17T07:35:00.905Z,0.45
2023-01-17T07:36:09.377Z,0.30
2023-01-17T07:37:15.210Z,0.50
2023-01-17T07:38:20.229Z,0.80
2023-01-17T07:39:23.351Z,0.47
2023-01-17T07:40:27.319Z,0.60
2023-01-17T07:41:35.115Z,0.50
2023-01-17T07:42:40.765Z,0.52
2023-01-17T07:43:43.999Z,0.93
2023-01-17T07:44:46.642Z,0.65
2023-01-17T07:45:53.488Z,0.50
2023-01-17T07:46:56.178Z,0.95
2023-01-17T07:47:58.885Z,1.33
2023-01-17T07:49:01.774Z,1.48
2023-01-17T07:50:05.297Z,1.33
2023-01-17T07:51:09.633Z,0.47
2023-01-17T07:52:12.333Z,0.50
2023-01-17T07:53:15.260Z,0.60
2023-01-17T07:54:17.780Z,0.45
2023-01-17T07:55:20.302Z,0.47
2023-01-17T07:56:23.185Z,0.30
2023-01-17T07:57:25.783Z,0.50
2023-01-17T07:58:28.790Z,0.30
2023-01-17T07:59:33.868Z,1.33
2023-01-17T08:00:36.395Z,0.45
2023-01-17T08:01:38.992Z,0.43
2023-01-17T08:02:41.443Z,0.40
2023-01-17T08:03:44.195Z,0.45
2023-01-17T08:04:47.395Z,0.40
2023-01-17T08:05:55.684Z,0.52
2023-01-17T08:07:00.634Z,0.57
2023-01-17T08:08:03.160Z,0.40
2023-01-17T08:09:05.891Z,0.65
2023-01-17T08:10:13.243Z,0.52
2023-01-17T08:11:16.329Z,0.50
2023-01-17T08:12:18.995Z,0.50
2023-01-17T08:13:22.567Z,0.60
2023-01-17T08:14:25.354Z,0.30
2023-01-17T08:15:27.995Z,1.23
2023-01-17T08:16:30.909Z,0.28
2023-01-17T08:17:34.123Z,0.50
2023-01-17T08:18:36.640Z,0.40
2023-01-17T08:19:39.497Z,0.68
2023-01-17T08:20:46.495Z,0.80
2023-01-17T08:21:49.124Z,0.77
2023-01-17T08:22:57.880Z,0.45
2023-01-17T08:24:00.414Z,0.57
2023-01-17T08:25:02.920Z,0.70
2023-01-17T08:26:05.572Z,0.35
2023-01-17T08:27:09.163Z,0.30
2023-01-17T08:28:11.924Z,0.30
2023-01-17T08:29:15.285Z,0.60
2023-01-17T08:30:18.798Z,0.50
2023-01-17T08:31:21.483Z,0.30
2023-01-17T08:32:24.166Z,0.43
2023-01-17T08:33:26.685Z,0.43
2023-01-17T08:34:29.209Z,0.40
2023-01-17T08:35:31.851Z,0.50
2023-01-17T08:36:34.368Z,1.00
2023-01-17T08:37:38.089Z,0.57
2023-01-17T08:38:40.610Z,0.32
2023-01-17T08:39:43.145Z,0.20
2023-01-17T08:40:45.776Z,0.90
2023-01-17T08:41:48.293Z,0.38
2023-01-17T08:42:55.258Z,0.20
2023-01-17T08:43:58.383Z,0.50
2023-01-17T08:45:00.775Z,0.10
2023-01-17T08:46:03.332Z,0.47
2023-01-17T08:47:06.431Z,0.95
2023-01-17T08:48:08.946Z,0.45
2023-01-17T08:49:12.355Z,0.25
2023-01-17T08:50:15.212Z,0.40
2023-01-17T08:51:18.189Z,0.28
2023-01-17T08:52:20.709Z,0.95
2023-01-17T08:53:23.477Z,0.30
2023-01-17T08:54:26.200Z,0.30
2023-01-17T08:55:28.999Z,0.35
2023-01-17T08:56:31.759Z,0.60
2023-01-17T08:57:34.601Z,0.50
2023-01-17T08:58:37.406Z,0.30
2023-01-17T08:59:40.043Z,0.38
2023-01-17T09:00:42.731Z,0.20
2023-01-17T09:01:46.235Z,0.40
2023-01-17T09:02:52.177Z,0.43
2023-01-17T09:03:54.995Z,0.38
2023-01-17T09:04:57.823Z,0.50
2023-01-17T09:06:04.655Z,0.40
2023-01-17T09:07:07.655Z,0.73
2023-01-17T09:08:10.780Z,1.00
2023-01-17T09:09:14.017Z,0.20
2023-01-17T09:10:17.261Z,0.63
2023-01-17T09:11:20.383Z,0.45
2023-01-17T09:12:23.880Z,1.50
2023-01-17T09:13:26.997Z,0.25
2023-01-17T09:14:30.112Z,0.22
2023-01-17T09:15:33.482Z,0.80
2023-01-17T09:16:36.650Z,0.35
2023-01-17T09:17:39.847Z,0.80
2023-01-17T09:18:43.074Z,0.40
2023-01-17T09:19:48.986Z,0.35
2023-01-17T09:20:55.562Z,0.32
2023-01-17T09:21:58.810Z,0.93
2023-01-17T09:23:05.432Z,0.50
2023-01-17T09:24:08.762Z,0.60
2023-01-17T09:25:11.890Z,0.88
2023-01-17T09:26:28.234Z,0.40
2023-01-17T09:27:31.330Z,0.40
2023-01-17T09:28:41.410Z,1.90
2023-01-17T09:29:44.655Z,1.23
2023-01-17T09:30:48.312Z,0.60
2023-01-17T09:31:51.614Z,1.38
2023-01-17T09:32:55.698Z,0.65
2023-01-17T09:33:59.658Z,0.68
2023-01-17T09:35:03.857Z,0.57
2023-01-17T09:36:07.583Z,0.63
2023-01-17T09:37:11.065Z,0.50
2023-01-17T09:38:14.669Z,1.15
2023-01-17T09:39:18.028Z,0.60
2023-01-17T09:40:24.993Z,0.70
2023-01-17T09:41:55.260Z,0.52
2023-01-17T09:43:04.357Z,0.70
2023-01-17T09:44:24.648Z,0.60
2023-01-17T09:45:31.611Z,1.05
2023-01-17T09:46:40.129Z,0.50
2023-01-17T09:47:45.520Z,0.93
2023-01-17T09:49:02.687Z,0.77
2023-01-17T09:50:17.216Z,0.60
2023-01-17T09:51:24.648Z,0.40
2023-01-17T09:52:32.087Z,0.50
2023-01-17T09:53:39.343Z,0.57
2023-01-17T09:54:43.853Z,0.20
2023-01-17T09:56:05.226Z,0.47
2023-01-17T09:57:24.943Z,0.43
2023-01-17T09:58:48.584Z,0.47
2023-01-17T10:00:06.120Z,0.68
2023-01-17T10:01:18.036Z,0.20
2023-01-17T10:02:46.914Z,0.90
2023-01-17T10:04:12.550Z,0.47
2023-01-17T10:05:31.157Z,0.40
2023-01-17T10:06:42.595Z,0.30
2023-01-17T10:08:09.956Z,0.52
2023-01-17T10:09:24.684Z,0.30
2023-01-17T10:11:06.712Z,0.88
2023-01-17T10:12:30.929Z,0.63
2023-01-17T10:14:29.043Z,0.40
2023-01-17T10:15:31.554Z,0.30
2023-01-17T10:16:43.358Z,0.52
2023-01-17T10:18:07.653Z,0.40
2023-01-17T10:19:33.131Z,0.40
2023-01-17T10:21:07.344Z,0.47
2023-01-17T10:22:15.849Z,0.88
2023-01-17T10:23:33.361Z,0.90
2023-01-17T10:25:05.163Z,0.55
2023-01-17T10:26:18.729Z,0.40
2023-01-17T10:27:30.124Z,0.60
2023-01-17T10:28:47.171Z,0.77
2023-01-17T10:29:51.296Z,0.38
2023-01-17T10:31:13.035Z,0.25
2023-01-17T10:32:16.206Z,0.80
2023-01-17T10:33:20.648Z,0.38
2023-01-17T10:34:29.778Z,0.30
2023-01-17T10:35:37.090Z,0.32
2023-01-17T10:36:45.391Z,0.45
2023-01-17T10:37:49.213Z,0.40
2023-01-17T10:39:02.181Z,0.68
2023-01-17T10:40:16.824Z,0.32
2023-01-17T10:41:27.737Z,0.47
2023-01-17T10:43:57.375Z,0.25
2023-01-17T10:45:12.983Z,0.43
2023-01-17T10:46:20.575Z,0.38
2023-01-17T10:47:24.870Z,0.30
2023-01-17T10:48:40.265Z,0.40
2023-01-17T10:49:49.230Z,0.45
2023-01-17T10:51:33.274Z,0.52
2023-01-17T10:52:47.311Z,0.43
2023-01-17T10:53:55.590Z,0.82
2023-01-17T10:55:33.403Z,0.30
2023-01-17T10:56:39.764Z,1.25
2023-01-17T10:57:48.284Z,0.40
2023-01-17T10:59:11.569Z,0.35
2023-01-17T11:00:40.245Z,0.40
2023-01-17T11:01:43.437Z,0.43
2023-01-17T11:02:50.669Z,0.60
2023-01-17T11:03:55.419Z,0.93
2023-01-17T11:05:03.664Z,1.95
2023-01-17T11:06:22.131Z,0.52
2023-01-17T11:07:27.538Z,0.50
2023-01-17T11:08:53.464Z,0.73
2023-01-17T11:09:58.506Z,0.20
2023-01-17T11:11:04.616Z,0.60
2023-01-17T11:12:21.081Z,0.50
2023-01-17T11:13:37.290Z,0.57
2023-01-17T11:14:40.384Z,0.30
2023-01-17T11:15:49.039Z,0.30
2023-01-17T11:17:07.151Z,0.43
2023-01-17T11:18:17.470Z,0.50
2023-01-17T11:19:31.752Z,0.35
2023-01-17T11:20:37.515Z,0.73
2023-01-17T11:21:50.598Z,0.45
2023-01-17T11:23:17.483Z,0.40
2023-01-17T11:24:44.845Z,0.30
2023-01-17T11:25:54.082Z,0.47
2023-01-17T11:26:58.403Z,0.20
2023-01-17T11:28:05.126Z,0.20
2023-01-17T11:29:27.210Z,0.40
2023-01-17T11:30:30.456Z,0.50
2023-01-17T11:31:33.575Z,0.50
2023-01-17T11:32:36.815Z,0.77
2023-01-17T11:33:46.080Z,0.30
2023-01-17T11:35:14.024Z,0.30
2023-01-17T11:36:17.856Z,0.50
2023-01-17T11:37:21.342Z,0.60
2023-01-17T11:38:25.904Z,0.40
2023-01-17T11:39:29.284Z,0.20
2023-01-17T11:40:38.993Z,0.30
2023-01-17T11:41:42.470Z,0.60
2023-01-17T11:42:45.708Z,0.50
2023-01-17T11:43:59.752Z,0.32
2023-01-17T11:45:28.675Z,0.63
2023-01-17T11:46:32.659Z,0.43
2023-01-17T11:47:35.642Z,0.57
2023-01-17T11:48:39.362Z,0.43
2023-01-17T11:49:45.146Z,0.82
2023-01-17T11:50:58.107Z,0.38
2023-01-17T11:52:04.088Z,0.50
2023-01-17T11:53:26.893Z,0.20
2023-01-17T11:54:39.678Z,0.30
2023-01-17T11:56:05.062Z,0.40
2023-01-17T11:57:20.533Z,0.40
2023-01-17T11:58:24.373Z,0.50
2023-01-17T11:59:42.622Z,0.30
2023-01-17T12:00:49.327Z,1.25
2023-01-17T12:02:02.826Z,0.38
2023-01-17T12:03:17.587Z,0.73
2023-01-17T12:04:25.031Z,0.82
2023-01-17T12:05:40.706Z,0.75
2023-01-17T12:07:03.553Z,0.95
2023-01-17T12:08:11.589Z,0.73
2023-01-17T12:09:24.434Z,0.85
2023-01-17T12:10:46.282Z,0.32
2023-01-17T12:12:45.436Z,0.57
2023-01-17T12:14:03.555Z,0.60
2023-01-17T12:15:27.318Z,0.60
2023-01-17T12:16:32.867Z,0.40
2023-01-17T12:17:47.447Z,0.43
2023-01-17T12:19:04.045Z,0.47
2023-01-17T12:20:21.947Z,0.30
2023-01-17T12:21:43.162Z,0.45
2023-01-17T12:23:21.082Z,0.82
2023-01-17T12:24:26.242Z,0.30
2023-01-17T12:25:37.281Z,0.40
2023-01-17T12:26:50.134Z,0.68
2023-01-17T12:28:27.329Z,0.45
2023-01-17T12:29:44.488Z,0.77
2023-01-17T12:31:15.423Z,0.28
2023-01-17T12:32:30.237Z,0.40
2023-01-17T12:33:50.989Z,0.35
2023-01-17T12:35:03.696Z,0.57
2023-01-17T12:36:22.169Z,0.50
2023-01-17T12:37:34.658Z,0.40
2023-01-17T12:38:39.579Z,0.68
2023-01-17T12:39:52.654Z,0.95
2023-01-17T12:41:06.005Z,0.90
2023-01-17T12:42:21.333Z,0.70
2023-01-17T12:43:37.356Z,0.60
2023-01-17T12:45:05.978Z,0.50
2023-01-17T12:46:21.132Z,0.40
2023-01-17T12:47:23.858Z,0.55
2023-01-17T12:48:32.278Z,0.60
2023-01-17T12:49:49.667Z,0.40
2023-01-17T12:51:04.187Z,0.47
2023-01-17T12:52:29.026Z,0.50
2023-01-17T12:54:05.505Z,0.60
2023-01-17T12:55:17.750Z,1.13
2023-01-17T12:56:33.719Z,0.60
2023-01-17T12:57:44.272Z,0.90
2023-01-17T12:58:53.033Z,0.73
2023-01-17T13:00:07.084Z,1.05
2023-01-17T13:01:23.837Z,0.68
2023-01-17T13:02:37.558Z,0.80
2023-01-17T13:03:52.229Z,0.57
2023-01-17T13:05:03.242Z,0.50
2023-01-17T13:07:23.650Z,0.73
2023-01-17T13:08:39.144Z,0.70
2023-01-17T13:09:59.171Z,0.40
2023-01-17T13:11:23.414Z,0.40
2023-01-17T13:12:31.459Z,0.40
2023-01-17T13:13:36.375Z,0.45
2023-01-17T13:14:39.503Z,0.90
2023-01-17T13:15:43.463Z,0.40
2023-01-17T13:17:37.711Z,1.10
2023-01-17T13:18:52.228Z,1.10
2023-01-17T13:20:23.076Z,0.60
2023-01-17T13:21:29.930Z,0.60
2023-01-17T13:22:33.752Z,0.45
2023-01-17T13:23:59.434Z,0.47
2023-01-17T13:25:21.760Z,0.63
2023-01-17T13:26:58.124Z,0.30
2023-01-17T13:28:14.449Z,1.27
2023-01-17T13:29:42.290Z,0.50
2023-01-17T13:31:06.616Z,1.17
2023-01-17T13:32:38.449Z,0.70
2023-01-17T13:34:04.493Z,0.70
2023-01-17T13:35:28.854Z,0.50
2023-01-17T13:37:10.142Z,1.80
2023-01-17T13:38:22.382Z,0.60
2023-01-17T13:39:38.702Z,0.63
2023-01-17T13:40:49.504Z,0.60
2023-01-17T13:44:05.827Z,0.70
2023-01-17T13:45:18.554Z,0.60
2023-01-17T13:46:22.047Z,1.08
2023-01-17T13:47:28.392Z,3.15
2023-01-17T13:48:38.335Z,0.50
2023-01-17T13:49:42.203Z,0.68
2023-01-17T13:50:45.319Z,1.02
2023-01-17T13:52:09.819Z,0.70
2023-01-17T13:53:39.806Z,0.60
2023-01-17T13:54:55.166Z,0.98
2023-01-17T13:56:25.905Z,0.60
2023-01-17T13:57:30.425Z,1.88
2023-01-17T13:59:02.788Z,0.65
2023-01-17T14:00:21.588Z,0.60
2023-01-17T14:01:24.390Z,0.60
2023-01-17T14:02:33.241Z,0.95
2023-01-17T14:03:51.159Z,0.70
2023-01-17T14:05:05.758Z,0.68
2023-01-17T14:06:44.874Z,1.00
2023-01-17T14:08:00.039Z,0.80
2023-01-17T14:09:12.829Z,0.63
2023-01-17T14:10:41.643Z,1.30
2023-01-17T14:12:02.631Z,1.05
2023-01-17T14:13:24.838Z,1.23
2023-01-17T14:14:45.301Z,0.60
2023-01-17T14:15:50.400Z,0.70
2023-01-17T14:16:53.170Z,0.80
2023-01-17T14:17:59.324Z,0.95
2023-01-17T14:19:02.078Z,0.88
2023-01-17T14:20:04.617Z,0.82
2023-01-17T14:21:19.120Z,0.95
2023-01-17T14:22:21.518Z,0.75
2023-01-17T14:23:33.519Z,0.60
2023-01-17T14:25:20.183Z,0.75
2023-01-17T14:26:36.902Z,1.20
2023-01-17T14:27:42.502Z,0.90
2023-01-17T14:28:45.170Z,1.23
2023-01-17T14:29:55.724Z,1.42
2023-01-17T14:31:01.125Z,1.13
2023-01-17T14:32:06.286Z,1.08
2023-01-17T14:33:23.464Z,0.75
2023-01-17T14:34:26.449Z,0.70
2023-01-17T14:35:33.537Z,0.80
2023-01-17T14:36:37.141Z,1.42
2023-01-17T14:37:47.707Z,0.73
2023-01-17T14:38:50.611Z,0.93
2023-01-17T14:39:53.452Z,0.70
2023-01-17T14:40:57.773Z,1.10
2023-01-17T14:42:00.295Z,0.80
2023-01-17T14:43:07.754Z,0.88
2023-01-17T14:44:11.695Z,0.80
2023-01-17T14:45:24.178Z,0.80
2023-01-17T14:46:29.582Z,0.63
2023-01-17T14:47:36.303Z,0.70
2023-01-17T14:48:40.996Z,0.93
2023-01-17T14:49:44.586Z,0.60
2023-01-17T14:50:48.791Z,0.93
2023-01-17T14:52:02.112Z,0.90
2023-01-17T14:53:10.261Z,0.93
2023-01-17T14:54:22.149Z,1.40
2023-01-17T14:55:27.665Z,1.00
2023-01-17T14:56:31.753Z,0.65
2023-01-17T14:57:34.150Z,0.80
2023-01-17T14:58:36.790Z,1.25
2023-01-17T14:59:39.434Z,0.77
2023-01-17T15:00:41.953Z,0.90
2023-01-17T15:02:06.709Z,0.90
2023-01-17T15:03:13.445Z,0.90
2023-01-17T15:04:26.478Z,0.90
2023-01-17T15:05:29.918Z,1.83
2023-01-17T15:06:38.726Z,0.93
2023-01-17T15:07:46.494Z,0.90
2023-01-17T15:08:54.224Z,0.73
2023-01-17T15:09:59.744Z,0.80
2023-01-17T15:11:07.673Z,1.17
2023-01-17T15:12:14.588Z,1.48
2023-01-17T15:13:29.763Z,0.70
2023-01-17T15:14:41.977Z,2.33
2023-01-17T15:15:45.218Z,0.90
2023-01-17T15:16:48.253Z,0.55
2023-01-17T15:17:53.863Z,1.65
2023-01-17T15:19:09.664Z,0.57
2023-01-17T15:20:20.986Z,0.77
2023-01-17T15:21:27.469Z,0.90
2023-01-17T15:22:31.315Z,0.80
2023-01-17T15:23:39.711Z,0.80
2023-01-17T15:24:47.638Z,0.85
2023-01-17T15:25:52.915Z,1.27